createdAt,value
2023-05-04T00:01:57.149Z,5.81
2023-05-04T00:04:23.699Z,5.83
2023-05-04T00:06:50.324Z,5.75
2023-05-04T00:09:16.921Z,5.73
2023-05-04T00:11:43.572Z,5.75
2023-05-04T00:14:10.053Z,5.69
2023-05-04T00:16:36.962Z,5.74
2023-05-04T00:19:03.423Z,5.73
2023-05-04T00:21:29.856Z,5.66
2023-05-04T00:23:56.390Z,5.60
2023-05-04T00:26:22.848Z,5.64
2023-05-04T00:28:49.382Z,5.59
2023-05-04T00:31:18.863Z,5.60
2023-05-04T00:33:45.750Z,5.61
2023-05-04T00:36:13.896Z,5.57
2023-05-04T00:38:54.464Z,5.55
2023-05-04T00:41:22.055Z,5.55
2023-05-04T00:43:49.123Z,5.47
2023-05-04T00:46:16.086Z,5.42
2023-05-04T00:48:43.737Z,5.41
2023-05-04T00:51:12.024Z,5.32
2023-05-04T00:53:39.171Z,5.38
2023-05-04T00:56:07.105Z,5.38
2023-05-04T00:58:34.202Z,5.37
2023-05-04T01:01:02.425Z,5.38
2023-05-04T01:03:29.591Z,5.34
2023-05-04T01:10:18.064Z,5.28
2023-05-04T01:12:51.711Z,5.21
2023-05-04T01:15:19.749Z,5.10
2023-05-04T01:17:46.274Z,5.04
2023-05-04T01:20:14.020Z,5.00
2023-05-04T01:22:41.072Z,5.00
2023-05-04T01:25:08.141Z,5.05
2023-05-04T01:27:46.012Z,5.03
2023-05-04T01:30:19.151Z,5.00
2023-05-04T01:32:47.337Z,4.95
2023-05-04T01:35:16.194Z,4.94
2023-05-04T01:37:43.010Z,4.81
2023-05-04T01:40:09.928Z,4.82
2023-05-04T01:42:36.448Z,4.73
2023-05-04T01:45:04.460Z,4.69
2023-05-04T01:47:30.981Z,4.63
2023-05-04T01:49:57.492Z,4.57
2023-05-04T01:52:24.231Z,4.56
2023-05-04T01:54:50.788Z,4.46
2023-05-04T01:57:17.427Z,4.37
2023-05-04T01:59:43.991Z,4.42
2023-05-04T02:02:10.737Z,4.39
2023-05-04T02:04:37.347Z,4.45
2023-05-04T02:07:04.132Z,4.40
2023-05-04T02:09:31.809Z,4.42
2023-05-04T02:11:58.302Z,4.42
2023-05-04T02:14:24.772Z,4.34
2023-05-04T02:16:51.346Z,4.28
2023-05-04T02:19:18.039Z,4.29
2023-05-04T02:21:44.500Z,4.29
2023-05-04T02:24:10.942Z,4.25
2023-05-04T02:26:37.486Z,4.26
2023-05-04T02:29:04.967Z,4.25
2023-05-04T02:31:32.914Z,4.25
2023-05-04T02:34:01.228Z,4.18
2023-05-04T02:36:27.824Z,4.18
2023-05-04T02:38:59.078Z,4.16
2023-05-04T02:41:26.453Z,4.17
2023-05-04T02:43:53.023Z,4.07
2023-05-04T02:46:20.109Z,4.16
2023-05-04T02:48:46.715Z,4.11
2023-05-04T02:51:13.131Z,4.12
2023-05-04T02:53:39.655Z,4.12
2023-05-04T02:56:06.341Z,3.96
2023-05-04T02:58:32.840Z,3.93
2023-05-04T03:00:59.537Z,3.83
2023-05-04T03:03:26.146Z,3.84
2023-05-04T03:05:52.664Z,3.80
2023-05-04T03:08:19.227Z,3.80
2023-05-04T03:10:45.912Z,3.77
2023-05-04T03:13:12.539Z,3.81
2023-05-04T03:15:39.145Z,3.82
2023-05-04T03:18:05.825Z,3.72
2023-05-04T03:20:32.340Z,3.67
2023-05-04T03:22:58.875Z,3.61
2023-05-04T03:25:25.344Z,3.58
2023-05-04T03:27:51.836Z,3.63
2023-05-04T03:30:18.423Z,3.56
2023-05-04T03:32:45.030Z,3.65
2023-05-04T03:35:11.549Z,3.66
2023-05-04T03:37:38.130Z,3.65
2023-05-04T03:40:05.399Z,3.60
2023-05-04T03:42:32.031Z,3.63
2023-05-04T03:44:58.561Z,3.64
2023-05-04T03:47:25.117Z,3.56
2023-05-04T03:49:51.788Z,3.59
2023-05-04T03:52:18.295Z,3.55
2023-05-04T03:54:44.729Z,3.58
2023-05-04T03:57:11.204Z,3.57
2023-05-04T03:59:37.688Z,3.47
2023-05-04T04:02:04.177Z,3.58
2023-05-04T04:04:30.726Z,3.47
2023-05-04T04:06:57.293Z,3.58
2023-05-04T04:09:23.804Z,3.51
2023-05-04T04:11:50.245Z,3.45
2023-05-04T04:14:16.674Z,3.46
2023-05-04T04:16:43.232Z,3.34
2023-05-04T04:19:09.787Z,3.48
2023-05-04T04:21:36.343Z,3.56
2023-05-04T04:24:02.868Z,3.70
2023-05-04T04:26:29.556Z,3.76
2023-05-04T04:28:56.027Z,3.89
2023-05-04T04:31:22.740Z,3.95
2023-05-04T04:33:51.220Z,4.02
2023-05-04T04:36:18.279Z,3.98
2023-05-04T04:38:45.151Z,4.06
2023-05-04T04:41:11.801Z,4.06
2023-05-04T04:43:38.379Z,3.96
2023-05-04T04:46:05.133Z,3.98
2023-05-04T04:48:31.708Z,4.15
2023-05-04T04:50:59.005Z,4.25
2023-05-04T04:53:25.781Z,4.34
2023-05-04T04:55:52.714Z,4.42
2023-05-04T04:58:19.292Z,4.30
2023-05-04T05:00:47.504Z,4.30
2023-05-04T05:03:14.029Z,4.39
2023-05-04T05:05:40.577Z,4.44
2023-05-04T05:08:07.010Z,4.41
2023-05-04T05:10:33.469Z,4.43
2023-05-04T05:13:00.006Z,4.58
2023-05-04T05:15:26.513Z,4.68
2023-05-04T05:17:53.012Z,4.69
2023-05-04T05:20:19.520Z,4.82
2023-05-04T05:22:46.187Z,4.85
2023-05-04T05:25:13.092Z,4.92
2023-05-04T05:27:39.633Z,4.93
2023-05-04T05:30:06.861Z,5.14
2023-05-04T05:32:33.791Z,5.24
2023-05-04T05:35:00.340Z,5.18
2023-05-04T05:37:27.670Z,5.14
2023-05-04T05:39:54.330Z,5.16
2023-05-04T05:42:20.997Z,5.48
2023-05-04T05:44:47.611Z,5.48
2023-05-04T05:47:14.520Z,5.51
2023-05-04T05:49:41.840Z,5.40
2023-05-04T05:52:09.131Z,5.46
2023-05-04T05:54:35.729Z,5.56
2023-05-04T05:57:02.467Z,5.71
2023-05-04T05:59:29.055Z,5.76
2023-05-04T06:01:56.068Z,5.87
2023-05-04T06:04:22.705Z,5.89
2023-05-04T06:06:49.265Z,5.86
2023-05-04T06:09:15.683Z,5.89
2023-05-04T06:11:42.378Z,6.20
2023-05-04T06:14:08.802Z,6.25
2023-05-04T06:16:35.659Z,6.25
2023-05-04T06:19:02.437Z,6.34
2023-05-04T06:21:28.901Z,6.00
2023-05-04T06:23:55.359Z,6.38
2023-05-04T06:26:22.740Z,6.57
2023-05-04T06:28:49.252Z,6.70
2023-05-04T06:31:15.769Z,6.87
2023-05-04T06:33:42.317Z,7.05
2023-05-04T06:36:09.096Z,7.29
2023-05-04T06:38:37.882Z,7.39
2023-05-04T06:41:05.625Z,7.44
2023-05-04T06:43:32.592Z,7.65
2023-05-04T06:46:05.556Z,7.98
2023-05-04T06:48:32.101Z,8.12
2023-05-04T06:51:00.218Z,8.33
2023-05-04T06:53:28.868Z,8.75
2023-05-04T06:55:55.380Z,8.94
2023-05-04T06:58:21.978Z,9.23
2023-05-04T07:00:48.539Z,9.37
2023-05-04T07:03:15.185Z,9.91
2023-05-04T07:05:42.435Z,10.23
2023-05-04T07:08:09.738Z,10.80
2023-05-04T07:10:36.310Z,11.17
2023-05-04T07:13:03.457Z,11.28
2023-05-04T07:15:30.018Z,11.45
2023-05-04T07:17:56.809Z,11.37
2023-05-04T07:20:25.824Z,11.66
2023-05-04T07:22:57.045Z,11.97
2023-05-04T07:25:27.808Z,12.14
2023-05-04T07:27:54.559Z,12.41
2023-05-04T07:30:21.931Z,12.51
2023-05-04T07:32:48.569Z,12.87
2023-05-04T07:35:15.265Z,13.18
2023-05-04T07:37:41.909Z,13.60
2023-05-04T07:40:09.534Z,13.75
2023-05-04T07:42:36.031Z,13.76
2023-05-04T07:45:02.560Z,12.97
2023-05-04T07:47:29.146Z,14.10
2023-05-04T07:49:55.795Z,14.48
2023-05-04T07:52:22.423Z,14.86
2023-05-04T07:54:52.129Z,14.37
2023-05-04T07:57:19.323Z,14.01
2023-05-04T07:59:45.955Z,14.27
2023-05-04T08:02:12.867Z,14.15
2023-05-04T08:04:39.393Z,15.03
2023-05-04T08:07:05.864Z,15.38
2023-05-04T08:09:32.413Z,15.69
2023-05-04T08:11:59.014Z,15.41
2023-05-04T08:14:25.539Z,14.88
2023-05-04T08:16:52.020Z,15.33
2023-05-04T08:19:18.985Z,16.05
2023-05-04T08:21:45.534Z,15.89
2023-05-04T08:24:12.087Z,16.49
2023-05-04T08:26:38.931Z,16.38
2023-05-04T08:29:10.633Z,16.59
2023-05-04T08:31:37.376Z,16.28
2023-05-04T08:34:04.317Z,15.99
2023-05-04T08:36:31.713Z,14.90
2023-05-04T08:38:58.175Z,15.82
2023-05-04T08:41:24.712Z,15.54
2023-05-04T08:43:52.115Z,13.96
2023-05-04T08:46:18.690Z,15.70
2023-05-04T08:48:45.181Z,15.13
2023-05-04T08:51:12.454Z,15.35
2023-05-04T08:53:43.123Z,15.53
2023-05-04T08:56:13.398Z,17.23
2023-05-04T08:58:51.213Z,18.06
2023-05-04T09:01:19.897Z,17.54
2023-05-04T09:03:47.907Z,18.01
2023-05-04T09:06:14.754Z,17.70
2023-05-04T09:08:42.273Z,18.16
2023-05-04T09:11:08.888Z,18.75
2023-05-04T09:13:35.770Z,19.15
2023-05-04T09:16:04.050Z,18.29
2023-05-04T09:18:40.608Z,18.72
2023-05-04T09:21:07.709Z,17.28
2023-05-04T09:23:45.255Z,17.74
2023-05-04T09:26:12.039Z,17.50
2023-05-04T09:28:39.350Z,17.23
2023-05-04T09:31:07.247Z,17.17
2023-05-04T09:33:34.589Z,17.18
2023-05-04T09:36:14.846Z,17.99
2023-05-04T09:38:41.385Z,18.60
2023-05-04T09:41:08.268Z,19.35
2023-05-04T09:43:42.779Z,19.57
2023-05-04T09:46:19.454Z,19.34
2023-05-04T09:48:56.966Z,19.86
2023-05-04T09:51:26.490Z,18.44
2023-05-04T09:53:53.973Z,18.45
2023-05-04T09:56:32.386Z,19.43
2023-05-04T09:58:59.252Z,18.24
2023-05-04T10:01:29.985Z,18.13
2023-05-04T10:03:57.088Z,18.82
2023-05-04T10:06:24.290Z,19.12
2023-05-04T10:08:51.544Z,19.89
2023-05-04T10:11:20.196Z,20.49
2023-05-04T10:13:48.689Z,17.91
2023-05-04T10:16:39.920Z,17.97
2023-05-04T10:20:01.006Z,19.06
2023-05-04T10:23:04.418Z,17.74
2023-05-04T10:25:56.430Z,18.24
2023-05-04T10:28:32.784Z,18.83
2023-05-04T10:30:59.572Z,17.93
2023-05-04T10:33:37.232Z,17.65
2023-05-04T10:36:04.096Z,17.26
2023-05-04T10:38:38.257Z,17.01
2023-05-04T10:41:17.898Z,16.69
2023-05-04T10:43:49.107Z,16.35
2023-05-04T10:46:17.736Z,16.80
2023-05-04T10:48:44.284Z,16.18
2023-05-04T10:51:23.670Z,16.08
2023-05-04T10:53:52.127Z,15.75
2023-05-04T10:56:26.369Z,15.38
2023-05-04T10:58:53.543Z,14.90
2023-05-04T11:01:21.356Z,15.51
2023-05-04T11:03:52.446Z,15.47
2023-05-04T11:06:25.474Z,15.21
2023-05-04T11:09:03.305Z,15.40
2023-05-04T11:11:29.858Z,15.83
2023-05-04T11:13:56.991Z,16.35
2023-05-04T11:16:27.514Z,16.28
2023-05-04T11:18:55.051Z,16.60
2023-05-04T11:21:25.726Z,16.64
2023-05-04T11:23:56.843Z,17.35
2023-05-04T11:26:24.475Z,17.49
2023-05-04T11:28:51.241Z,17.36
2023-05-04T11:31:20.497Z,15.80
2023-05-04T11:33:47.078Z,15.77
2023-05-04T11:36:13.886Z,16.82
2023-05-04T11:38:40.674Z,17.42
2023-05-04T11:41:08.616Z,17.04
2023-05-04T11:43:37.723Z,17.57
2023-05-04T11:46:06.028Z,17.08
2023-05-04T11:48:34.793Z,17.16
2023-05-04T11:51:03.376Z,17.04
2023-05-04T11:53:37.582Z,16.34
2023-05-04T11:56:04.824Z,15.54
2023-05-04T11:58:31.412Z,15.40
2023-05-04T12:00:58.960Z,15.46
2023-05-04T12:03:51.197Z,14.73
2023-05-04T12:06:19.778Z,14.85
2023-05-04T12:08:46.359Z,14.53
2023-05-04T12:11:26.546Z,14.84
2023-05-04T12:14:13.985Z,15.17
2023-05-04T12:16:42.823Z,15.20
2023-05-04T12:19:12.524Z,14.99
2023-05-04T12:21:59.702Z,15.10
2023-05-04T12:24:27.622Z,15.31
2023-05-04T12:26:54.400Z,15.17
2023-05-04T12:29:21.324Z,15.55
2023-05-04T12:31:47.976Z,15.79
2023-05-04T12:34:14.511Z,16.00
2023-05-04T12:36:40.949Z,15.83
2023-05-04T12:39:07.367Z,15.95
2023-05-04T12:41:34.003Z,16.06
2023-05-04T12:44:00.692Z,16.11
2023-05-04T12:46:27.224Z,16.10
2023-05-04T12:48:53.677Z,15.54
2023-05-04T12:51:20.109Z,15.11
2023-05-04T12:53:46.731Z,15.41
2023-05-04T12:56:13.236Z,15.46
2023-05-04T12:58:39.766Z,15.49
2023-05-04T13:01:06.360Z,15.45
2023-05-04T13:03:33.108Z,15.92
2023-05-04T13:05:59.658Z,15.37
2023-05-04T13:08:26.220Z,15.22
2023-05-04T13:10:52.695Z,15.49
2023-05-04T13:13:21.306Z,15.49
2023-05-04T13:15:50.489Z,15.73
2023-05-04T13:18:17.066Z,15.89
2023-05-04T13:20:43.819Z,15.78
2023-05-04T13:23:10.668Z,15.89
2023-05-04T13:25:37.477Z,15.40
2023-05-04T13:28:04.086Z,15.35
2023-05-04T13:30:30.742Z,15.64
2023-05-04T13:32:57.460Z,15.58
2023-05-04T13:35:24.121Z,15.56
2023-05-04T13:37:51.428Z,14.97
2023-05-04T13:40:17.953Z,14.74
2023-05-04T13:42:44.633Z,14.53
2023-05-04T13:45:11.354Z,14.76
2023-05-04T13:47:37.959Z,15.19
2023-05-04T13:50:05.047Z,15.38
2023-05-04T13:52:32.326Z,15.17
2023-05-04T13:54:59.440Z,15.56
2023-05-04T13:57:29.298Z,15.81
2023-05-04T14:00:06.301Z,15.83
2023-05-04T14:02:34.165Z,15.79
2023-05-04T14:05:01.404Z,15.66
2023-05-04T14:07:27.945Z,15.30
2023-05-04T14:09:55.902Z,15.73
2023-05-04T14:12:22.445Z,15.40
2023-05-04T14:14:50.671Z,15.28
2023-05-04T14:17:17.525Z,15.30
2023-05-04T14:19:44.635Z,15.06
2023-05-04T14:22:11.205Z,14.99
2023-05-04T14:24:37.871Z,14.83
2023-05-04T14:27:04.378Z,14.74
2023-05-04T14:29:32.259Z,14.54
2023-05-04T14:31:58.744Z,15.08
2023-05-04T14:34:25.385Z,14.75
2023-05-04T14:36:53.169Z,14.98
2023-05-04T14:39:19.761Z,14.96
2023-05-04T14:41:46.208Z,14.95
2023-05-04T14:44:12.783Z,15.06
2023-05-04T14:46:39.241Z,15.27
2023-05-04T14:49:07.231Z,15.38
2023-05-04T14:51:35.455Z,15.24
2023-05-04T14:54:02.212Z,14.96
2023-05-04T14:56:28.695Z,14.97
2023-05-04T14:58:57.260Z,14.89
2023-05-04T15:01:27.146Z,14.88
2023-05-04T15:03:53.853Z,14.79
2023-05-04T15:06:20.535Z,14.77
2023-05-04T15:08:47.252Z,15.02
2023-05-04T15:11:13.881Z,15.07
2023-05-04T15:13:40.495Z,14.87
2023-05-04T15:16:07.568Z,14.92
2023-05-04T15:18:34.232Z,15.22
2023-05-04T15:21:00.667Z,15.10
2023-05-04T15:23:27.203Z,14.95
2023-05-04T15:25:53.681Z,15.04
2023-05-04T15:28:22.756Z,15.12
2023-05-04T15:30:49.278Z,14.81
2023-05-04T15:33:15.755Z,14.99
2023-05-04T15:35:42.209Z,15.14
2023-05-04T15:38:08.996Z,14.96
2023-05-04T15:40:35.583Z,14.56
2023-05-04T15:43:02.351Z,14.38
2023-05-04T15:45:28.858Z,14.60
2023-05-04T15:47:58.301Z,14.91
2023-05-04T15:50:25.209Z,15.05
2023-05-04T15:52:52.683Z,14.93
2023-05-04T15:55:25.858Z,14.59
2023-05-04T15:57:53.926Z,14.99
2023-05-04T16:00:21.234Z,15.02
2023-05-04T16:02:47.902Z,14.97
2023-05-04T16:05:14.575Z,14.98
2023-05-04T16:07:41.137Z,14.89
2023-05-04T16:10:08.396Z,14.88
2023-05-04T16:12:35.329Z,14.83
2023-05-04T16:15:02.033Z,14.77
2023-05-04T16:17:30.502Z,14.82
2023-05-04T16:19:56.974Z,14.85
2023-05-04T16:22:23.408Z,14.87
2023-05-04T16:24:49.884Z,14.74
2023-05-04T16:27:16.376Z,14.94
2023-05-04T16:29:42.975Z,14.63
2023-05-04T16:32:09.455Z,14.68
2023-05-04T16:34:36.054Z,14.76
2023-05-04T16:37:02.718Z,14.64
2023-05-04T16:39:34.268Z,14.86
2023-05-04T16:42:01.767Z,14.66
2023-05-04T16:44:31.363Z,14.56
2023-05-04T16:46:58.681Z,14.51
2023-05-04T16:49:25.577Z,14.61
2023-05-04T16:51:55.559Z,14.78
2023-05-04T16:54:24.093Z,14.51
2023-05-04T16:56:51.052Z,14.52
2023-05-04T16:59:17.636Z,14.66
2023-05-04T17:01:44.620Z,14.71
2023-05-04T17:04:11.709Z,14.62
2023-05-04T17:06:38.311Z,14.58
2023-05-04T17:09:05.150Z,14.59
2023-05-04T17:11:32.404Z,14.56
2023-05-04T17:13:59.444Z,14.49
2023-05-04T17:16:26.094Z,14.37
2023-05-04T17:18:52.972Z,14.39
2023-05-04T17:21:19.799Z,14.46
2023-05-04T17:23:46.314Z,14.42
2023-05-04T17:26:12.819Z,14.56
2023-05-04T17:28:39.291Z,14.49
2023-05-04T17:31:05.739Z,14.50
2023-05-04T17:33:32.343Z,14.42
2023-05-04T17:35:58.880Z,14.41
2023-05-04T17:38:25.390Z,14.38
2023-05-04T17:40:51.871Z,14.14
2023-05-04T17:43:18.363Z,14.20
2023-05-04T17:45:44.855Z,14.21
2023-05-04T17:48:11.426Z,14.23
2023-05-04T17:50:40.000Z,14.22
2023-05-04T17:53:06.675Z,14.15
2023-05-04T17:55:33.212Z,14.12
2023-05-04T17:57:59.658Z,14.06
2023-05-04T18:00:26.138Z,14.01
2023-05-04T18:02:52.739Z,13.95
2023-05-04T18:05:19.803Z,13.93
2023-05-04T18:07:46.307Z,13.90
2023-05-04T18:10:12.867Z,13.89
2023-05-04T18:12:39.500Z,13.95
2023-05-04T18:15:08.876Z,13.96
2023-05-04T18:17:37.871Z,13.97
2023-05-04T18:20:06.882Z,13.89
2023-05-04T18:22:34.119Z,13.96
2023-05-04T18:25:01.008Z,13.95
2023-05-04T18:27:31.832Z,13.78
2023-05-04T18:29:58.265Z,13.80
2023-05-04T18:32:24.868Z,13.76
2023-05-04T18:34:53.141Z,13.79
2023-05-04T18:37:19.612Z,13.79
2023-05-04T18:39:46.344Z,13.70
2023-05-04T18:42:12.816Z,13.63
2023-05-04T18:44:39.416Z,13.67
2023-05-04T18:47:05.884Z,13.62
2023-05-04T18:49:32.379Z,13.59
2023-05-04T18:52:00.482Z,13.51
2023-05-04T18:54:30.998Z,13.48
2023-05-04T18:56:58.208Z,13.45
2023-05-04T18:59:25.536Z,13.47
2023-05-04T19:01:52.869Z,13.42
2023-05-04T19:04:19.538Z,13.52
2023-05-04T19:06:47.599Z,13.37
2023-05-04T19:09:14.496Z,13.25
2023-05-04T19:11:41.323Z,13.20
2023-05-04T19:14:07.796Z,13.11
2023-05-04T19:16:34.281Z,13.11
2023-05-04T19:19:00.781Z,12.96
2023-05-04T19:21:28.461Z,12.98
2023-05-04T19:23:54.981Z,12.96
2023-05-04T19:26:21.835Z,12.88
2023-05-04T19:28:48.291Z,12.83
2023-05-04T19:31:15.592Z,12.80
2023-05-04T19:33:48.476Z,12.77
2023-05-04T19:36:16.293Z,12.72
2023-05-04T19:38:43.148Z,12.60
2023-05-04T19:41:09.694Z,12.55
2023-05-04T19:43:38.463Z,12.56
2023-05-04T19:46:04.948Z,12.52
2023-05-04T19:48:31.379Z,12.45
2023-05-04T19:50:57.953Z,12.46
2023-05-04T19:53:24.437Z,12.43
2023-05-04T19:55:51.111Z,12.44
2023-05-04T19:58:17.679Z,12.43
2023-05-04T20:00:44.184Z,12.37
2023-05-04T20:03:10.873Z,12.31
2023-05-04T20:05:38.488Z,12.28
2023-05-04T20:08:05.461Z,12.23
2023-05-04T20:10:32.242Z,12.21
2023-05-04T20:12:58.880Z,12.25
2023-05-04T20:15:25.965Z,12.24
2023-05-04T20:17:52.719Z,12.17
2023-05-04T20:20:21.446Z,12.15
2023-05-04T20:22:52.045Z,12.08
2023-05-04T20:25:19.949Z,12.02
2023-05-04T20:27:48.713Z,12.00
2023-05-04T20:30:15.638Z,11.94
2023-05-04T20:32:42.922Z,11.90
2023-05-04T20:35:09.634Z,11.82
2023-05-04T20:37:36.248Z,11.82
2023-05-04T20:40:02.894Z,11.77
2023-05-04T20:42:29.352Z,11.73
2023-05-04T20:44:55.878Z,11.69
2023-05-04T20:47:22.493Z,11.67
2023-05-04T20:49:49.080Z,11.53
2023-05-04T20:52:16.003Z,11.52
2023-05-04T20:54:42.481Z,11.43
2023-05-04T20:57:09.000Z,11.46
2023-05-04T20:59:35.446Z,11.39
2023-05-04T21:02:01.940Z,11.39
2023-05-04T21:04:28.453Z,11.28
2023-05-04T21:06:56.357Z,11.29
2023-05-04T21:09:22.823Z,11.17
2023-05-04T21:11:49.261Z,11.16
2023-05-04T21:14:16.418Z,11.15
2023-05-04T21:16:43.191Z,11.09
2023-05-04T21:19:09.710Z,10.95
2023-05-04T21:21:40.675Z,10.96
2023-05-04T21:24:12.288Z,10.87
2023-05-04T21:26:39.727Z,10.86
2023-05-04T21:29:11.180Z,10.77
2023-05-04T21:31:37.744Z,10.70
2023-05-04T21:34:04.345Z,10.72
2023-05-04T21:36:31.506Z,10.58
2023-05-04T21:38:58.231Z,10.58
2023-05-04T21:41:24.729Z,10.58
2023-05-04T21:43:51.135Z,10.51
2023-05-04T21:46:17.648Z,10.48
2023-05-04T21:48:44.233Z,10.37
2023-05-04T21:51:10.770Z,10.30
2023-05-04T21:53:37.318Z,10.32
2023-05-04T21:56:08.387Z,10.31
2023-05-04T21:58:37.107Z,10.24
2023-05-04T22:01:03.805Z,10.21
2023-05-04T22:03:30.612Z,10.14
2023-05-04T22:05:57.881Z,10.11
2023-05-04T22:08:25.047Z,10.09
2023-05-04T22:10:52.460Z,10.01
2023-05-04T22:13:19.348Z,10.00
2023-05-04T22:15:50.034Z,9.86
2023-05-04T22:18:17.499Z,9.86
2023-05-04T22:20:44.346Z,9.88
2023-05-04T22:23:11.091Z,9.90
2023-05-04T22:25:38.115Z,9.83
2023-05-04T22:28:05.209Z,9.79
2023-05-04T22:30:31.828Z,9.79
2023-05-04T22:32:58.834Z,9.77
2023-05-04T22:35:25.432Z,9.76
2023-05-04T22:37:51.990Z,9.70
2023-05-04T22:40:18.671Z,9.62
2023-05-04T22:42:45.620Z,9.63
2023-05-04T22:45:14.208Z,9.56
2023-05-04T22:47:41.875Z,9.59
2023-05-04T22:50:09.051Z,9.55
2023-05-04T22:52:35.807Z,9.52
2023-05-04T22:55:02.423Z,9.52
2023-05-04T22:57:29.122Z,9.50
2023-05-04T22:59:55.632Z,9.50
2023-05-04T23:02:22.239Z,9.42
2023-05-04T23:04:49.063Z,9.37
2023-05-04T23:07:15.815Z,9.33
2023-05-04T23:09:46.270Z,9.21
2023-05-04T23:12:13.386Z,9.13
2023-05-04T23:14:39.953Z,9.06
2023-05-04T23:17:06.542Z,9.01
2023-05-04T23:19:33.447Z,9.04
2023-05-04T23:22:00.214Z,9.05
2023-05-04T23:24:26.819Z,9.04
2023-05-04T23:26:53.437Z,9.00
2023-05-04T23:29:20.277Z,9.02
2023-05-04T23:31:46.794Z,8.90
2023-05-04T23:34:13.497Z,8.88
2023-05-04T23:36:40.285Z,8.83
2023-05-04T23:39:06.855Z,8.76
2023-05-04T23:41:33.417Z,8.69
2023-05-04T23:44:00.114Z,8.66
2023-05-04T23:46:26.607Z,8.48
2023-05-04T23:48:53.155Z,8.43
2023-05-04T23:51:19.709Z,8.45
2023-05-04T23:53:46.149Z,8.42
2023-05-04T23:56:14.311Z,8.41
2023-05-04T23:58:41.673Z,8.42
